Forecasts are only available for sites displaying the forecast symbol.

Some water levels are actually in metres AHD (Australian Height Datum), click individual sites for more details.

Scroll for more >

River gauges, storages, and weirs in the Murray–Darling Basin

Type Locationsort descending River Water level Flow Volume Release Water temp Salinity Rainfall
River Gauge Albury (Union Bridge) Murray 2.07 m 1/03/2021 2:45 Not measured Not measured Not measured 22.1°C 1/03/2021 2:45 93.3 μS/cm 1/03/2021 2:45 Not measured Full data
River Gauge Balranald Murrumbidgee 1.36 m 1/03/2021 0:45 947 ML/Day 1/03/2021 0:45 Not measured Not measured 23.6°C 1/03/2021 0:45 117.5 μS/cm 1/03/2021 0:45 Not measured Full data
River Gauge Bandiana Kiewa 0.94 m 1/03/2021 2:45 409 ML/Day 1/03/2021 2:45 Not measured Not measured 19.8°C 1/03/2021 2:45 40.7 μS/cm 1/03/2021 2:45 Not measured Full data
River Gauge Barmah Choke Murray 2.26 m 1/03/2021 2:45 6281 ML/Day 1/03/2021 2:45 Not measured Not measured Not measured Not measured Not measured Full data
River Gauge Biggara Murray 0.49 m 1/03/2021 2:45 595 ML/Day 1/03/2021 2:45 Not measured Not measured 17.2°C 1/03/2021 2:45 40.2 μS/cm 1/03/2021 2:45 0.00 mm 27/02/2021 9:00 Full data
River Gauge Bringenbrong Bridge Murray 1.58 m 1/03/2021 2:45 4214 ML/Day 1/03/2021 2:45 Not measured Not measured Not measured Not measured Not measured Full data
River Gauge Burtundy Darling 0.73 m 1/03/2021 2:15 160 ML/Day 1/03/2021 2:15 Not measured Not measured 23.3°C 1/03/2021 2:15 491.2 μS/cm 1/03/2021 2:15 Not measured Full data
River Gauge Colemans Mitta 1.42 m 1/03/2021 3:30 1020 ML/Day 1/03/2021 3:30 Not measured Not measured 16.1°C 1/03/2021 2:45 83.0 μS/cm 1/03/2021 2:45 Not measured Full data
River Gauge Colignan Murray 1.77 m 1/03/2021 2:45 5579 ML/Day 1/03/2021 2:45 Not measured Not measured 24.0°C 1/03/2021 2:45 94.2 μS/cm 1/03/2021 2:45 Not measured Full data
River Gauge Corowa Murray 2.66 m 1/03/2021 2:30 12478 ML/Day 1/03/2021 2:30 Not measured Not measured 22.5°C 1/03/2021 2:30 56.7 μS/cm 1/03/2021 2:30 Not measured Full data
Storage Dartmouth Dam Mitta 461.45 m 1/03/2021 3:30 Not measured 2445 GL 1/03/2021 3:30 Not measured Not measured Not measured Not measured Full data
River Gauge Doctors Point Murray 3.04 m 1/03/2021 2:45 15718 ML/Day 1/03/2021 2:45 Not measured Not measured 21.8°C 1/03/2021 2:45 97.2 μS/cm 1/03/2021 2:45 Not measured Full data
River Gauge Echuca Wharf Murray 86.78 m 28/02/2021 7:45 Not measured Not measured Not measured Not measured Not measured Not measured Full data
River Gauge Edward Escape Wakool 1.05 m 1/03/2021 1:45 1575 ML/Day 1/03/2021 1:45 Not measured Not measured 23.1°C 1/03/2021 1:45 67.6 μS/cm 1/03/2021 1:45 Not measured Full data
River Gauge Edward River Offtake Murray 2.44 m 1/03/2021 2:45 1594 ML/Day 1/03/2021 2:45 Not measured Not measured 23.3°C 1/03/2021 1:45 59.0 μS/cm 1/03/2021 1:45 Not measured Full data
Weirs Euston Weir Downstream Murray 43 m 1/03/2021 2:45 5866 ML/Day 1/03/2021 2:45 Not measured Not measured 22.5°C 1/03/2021 2:45 95.6 μS/cm 1/03/2021 2:45 Not measured Full data
Weirs Euston Weir Upstream Murray 47.61 m 28/02/2021 8:45 Not measured 37 GL 28/02/2021 7:45 Not measured Not measured Not measured 145.9 mm 5/03/2020 9:00 Full data
River Gauge Flow to South Australia Murray Not measured Not measured Not measured 8631.0 ML/d26/02/2021 7:45 Not measured Not measured Not measured Full data
River Gauge Frenchman Creek Murray 27.36 m 26/02/2021 7:45 Not measured Not measured 1645.0 ML/d26/02/2021 7:45 Not measured Not measured Not measured Full data
River Gauge Gulpa Creek Offtake Murray 2.39 m 1/03/2021 1:45 246 ML/Day 1/03/2021 1:45 Not measured Not measured Not measured Not measured Not measured Full data
River Gauge Hinnomunjie Mitta 0.65 m 1/03/2021 2:45 408 ML/Day 1/03/2021 2:45 Not measured Not measured 17.3°C 1/03/2021 2:45 41.1 μS/cm 1/03/2021 2:45 0.00 mm 27/02/2021 9:00 Full data
Storage Hume Dam Murray 183.76 m 1/03/2021 2:45 Not measured 1608 GL 1/03/2021 2:45 11920.0 ML/d28/02/2021 8:00 Not measured Not measured 0.00 mm 28/02/2021 9:00 Full data
River Gauge Jingellic Murray 1.82 m 1/03/2021 2:45 5613 ML/Day 1/03/2021 2:45 Not measured Not measured 18.2°C 1/03/2021 2:45 30.3 μS/cm 1/03/2021 2:45 0.00 mm 28/02/2021 9:00 Full data
River Gauge Kerang Loddon 0.35 m 1/03/2021 2:45 185 ML/Day 1/03/2021 2:45 Not measured Not measured 21.3°C 1/03/2021 2:45 130.3 μS/cm 1/03/2021 2:45 Not measured Full data
River Gauge Lake Albert Murray 0.68 m 28/02/2021 5:45 Not measured 259 GL 28/02/2021 5:45 Not measured Not measured Not measured Not measured Full data
River Gauge Lake Alexandrina Murray 0.73 m 28/02/2021 5:45 Not measured 1600 GL 28/02/2021 5:45 Not measured Not measured 715.4 μS/cm 1/03/2021 1:45 Not measured Full data
Storage Lake Victoria Murray 23.01 m 1/03/2021 1:45 Not measured 247 GL 1/03/2021 1:45 Not measured 20.1°C 27/02/2021 18:30 150.3 μS/cm 27/02/2021 18:30 Not measured Full data
Weirs Lock 1 Downstream Murray 0.85 m 1/03/2021 1:45 Not measured Not measured 5416.6 ML/d26/02/2021 7:45 Not measured Not measured Not measured Full data
Weirs Lock 1 Upstream Murray 3.22 m 1/03/2021 1:45 Not measured Not measured Not measured 22.9°C 1/03/2021 1:45 238.4 μS/cm 1/03/2021 1:45 Not measured Full data
Weirs Lock 2 Downstream Murray 3.41 m 1/03/2021 1:45 Not measured Not measured Not measured Not measured Not measured Not measured Full data
Weirs Lock 2 Upstream Murray 6.12 m 1/03/2021 1:45 Not measured Not measured Not measured 23.4°C 1/03/2021 1:45 213.2 μS/cm 1/03/2021 1:45 Not measured Full data
Weirs Lock 3 Downstream Murray 6.37 m 1/03/2021 1:45 Not measured Not measured Not measured Not measured Not measured Not measured Full data
Weirs Lock 3 Upstream Murray 9.84 m 1/03/2021 1:45 Not measured Not measured Not measured Not measured Not measured Not measured Full data
Weirs Lock 4 Downstream Murray 10.6 m 1/03/2021 1:45 Not measured Not measured Not measured Not measured Not measured Not measured Full data
Weirs Lock 4 Upstream Murray 13.24 m 1/03/2021 1:45 Not measured Not measured Not measured Not measured Not measured Not measured Full data
Weirs Lock 5 Downstream Murray 13.46 m 1/03/2021 1:45 Not measured Not measured Not measured Not measured Not measured Not measured Full data
Weirs Lock 5 Upstream Murray 16.34 m 1/03/2021 1:45 Not measured Not measured Not measured 23.9°C 1/03/2021 1:45 148.9 μS/cm 1/03/2021 1:45 Not measured Full data
Weirs Lock 6 Downstream Murray 16.5 m 1/03/2021 1:45 Not measured Not measured Not measured Not measured Not measured Not measured Full data
Weirs Lock 6 Upstream Murray 19.23 m 1/03/2021 1:45 Not measured Not measured Not measured 22.8°C 1/03/2021 1:45 143.3 μS/cm 1/03/2021 1:45 Not measured Full data
Weirs Lock 7 Downstream Murray 20.54 m 1/03/2021 1:45 Not measured Not measured Not measured Not measured Not measured Not measured Full data
Weirs Lock 7 Upstream Murray 21.71 m 1/03/2021 1:45 Not measured Not measured Not measured 24.5°C 1/03/2021 1:45 130.8 μS/cm 1/03/2021 1:45 Not measured Full data
Weirs Lock 8 Upstream Murray 24.2 m 1/03/2021 1:45 Not measured Not measured Not measured 23.9°C 1/03/2021 1:45 119.8 μS/cm 1/03/2021 1:45 Not measured Full data
Weirs Lock 9 Downstream Murray 24.23 m 1/03/2021 1:45 Not measured Not measured Not measured Not measured Not measured Not measured Full data
Weirs Lock 9 Upstream Murray 27.32 m 1/03/2021 1:45 Not measured Not measured Not measured 23.8°C 1/03/2021 1:45 127.2 μS/cm 1/03/2021 1:45 Not measured Full data
River Gauge McCoy Bridge Goulburn 1.73 m 1/03/2021 2:45 1381 ML/Day 1/03/2021 2:45 Not measured Not measured 22.6°C 1/03/2021 2:45 108.7 μS/cm 1/03/2021 2:45 Not measured Full data
Storage Menindee Lakes Darling Not measured Not measured 309 GL 28/02/2021 7:45 Not measured Not measured Not measured Not measured Full data
Weirs Mildura Weir downstream Murray 30.87 m 1/03/2021 2:45 Not measured Not measured Not measured 23.5°C 1/03/2021 2:45 -2.7 μS/cm 1/03/2021 2:45 Not measured Full data
River Gauge Morgan Downstream Murray Not measured Not measured Not measured 5173.6 ML/d1/03/2021 1:45 Not measured 228.9 μS/cm 1/03/2021 0:45 Not measured Full data
River Gauge Mulwala Canal Murray Not measured Not measured Not measured 3096.9 ML/d28/02/2021 8:45 Not measured Not measured Not measured Full data
River Gauge Mundoo Barrage Murray 0.66 m 28/02/2021 7:45 Not measured Not measured Not measured Not measured Not measured Not measured Full data
River Gauge Murray Bridge Murray 0.68 m 1/03/2021 1:45 Not measured Not measured Not measured 22.4°C 1/03/2021 1:45 262.1 μS/cm 1/03/2021 1:45 Not measured Full data
River Gauge Peechelba Ovens 126.55 m 1/03/2021 2:45 637 ML/Day 1/03/2021 2:45 Not measured Not measured 21.3°C 1/03/2021 2:45 56.3 μS/cm 1/03/2021 2:45 Not measured Full data
River Gauge Pinegrove Murray 1.17 m 1/03/2021 2:45 360 ML/Day 1/03/2021 2:45 Not measured Not measured 19.3°C 1/03/2021 2:45 41.8 μS/cm 1/03/2021 2:45 0.00 mm 28/02/2021 9:00 Full data
River Gauge Redcliffs Murray Not measured Not measured Not measured Not measured Not measured 109.9 μS/cm 28/02/2021 7:45 Not measured Full data
River Gauge Rochester Campaspe 1.67 m 1/03/2021 2:45 60 ML/Day 1/03/2021 2:45 Not measured Not measured 20.4°C 1/03/2021 2:45 614.8 μS/cm 1/03/2021 2:45 0.00 mm 28/02/2021 9:00 Full data
River Gauge Rufus River Murray 21.23 m 26/02/2021 7:45 Not measured Not measured 4650.8 ML/d26/02/2021 7:45 Not measured 154.7 μS/cm 1/03/2021 0:45 Not measured Full data
Weirs Steven's Weir Downstream Edward 1.77 m 1/03/2021 1:45 1655 ML/Day 1/03/2021 1:45 Not measured Not measured 22.9°C 1/03/2021 1:45 63.3 μS/cm 1/03/2021 1:45 Not measured Full data
Weirs Steven's Weir Upstream Edward 4.7 m 1/03/2021 2:45 Not measured Not measured Not measured Not measured Not measured Not measured Full data
River Gauge Stoney Crossing Murray 1.35 m 1/03/2021 1:45 348 ML/Day 1/03/2021 1:45 Not measured 349.6 ML/d28/02/2021 7:45 22.2°C 1/03/2021 1:45 183.5 μS/cm 1/03/2021 1:45 Not measured Full data
River Gauge Swan Hill Murray 1.05 m 1/03/2021 2:45 4894 ML/Day 1/03/2021 2:45 Not measured Not measured 23.1°C 1/03/2021 2:45 80.8 μS/cm 1/03/2021 2:45 Not measured Full data
River Gauge Tallandoon Mitta 1.42 m 1/03/2021 2:45 598 ML/Day 1/03/2021 2:45 Not measured Not measured 19.7°C 1/03/2021 2:45 57.2 μS/cm 1/03/2021 2:45 Not measured Full data
River Gauge Tauwitchere Barrage Murray 0.7 m 1/03/2021 1:45 Not measured Not measured Not measured Not measured Not measured Not measured Full data
River Gauge Tocumwal Murray 2.03 m 1/03/2021 2:45 8813 ML/Day 1/03/2021 2:45 Not measured Not measured 22.3°C 1/03/2021 2:45 69.0 μS/cm 1/03/2021 2:45 Not measured Full data
River Gauge Torrumbarry Headworks Murray 84.85 m 1/03/2021 2:45 Not measured Not measured 1677.7 ML/d1/03/2021 2:45 Not measured Not measured Not measured Full data
Weirs Torrumbarry Weir Downstream Murray 1.93 m 1/03/2021 2:45 5283 ML/Day 1/03/2021 2:45 Not measured Not measured 23.3°C 1/03/2021 2:45 71.6 μS/cm 1/03/2021 2:45 Not measured Full data
Weirs Torrumbarry Weir Upstream Murray 86.05 m 1/03/2021 1:45 Not measured 37 GL 28/02/2021 7:45 Not measured 23.3°C 28/02/2021 7:45 71.6 μS/cm 1/03/2021 0:45 0.00 mm 26/02/2021 9:00 Full data
River Gauge Wakool Canal Wakool 0.61 m 1/03/2021 1:45 Not measured Not measured 600.3 ML/d28/02/2021 8:45 Not measured Not measured Not measured Full data
River Gauge Wakool Junction Murray 2.55 m 1/03/2021 0:45 6131 ML/Day 1/03/2021 0:45 Not measured Not measured 23.7°C 1/03/2021 0:45 83.3 μS/cm 1/03/2021 0:45 Not measured Full data
River Gauge Weir 32 Upstream Darling 1.45 m 1/03/2021 1:45 353 ML/Day 1/03/2021 1:45 Not measured Not measured 23.1°C 1/03/2021 1:45 421.0 μS/cm 1/03/2021 1:45 Not measured Full data
Weirs Wentworth Weir Murray 27.52 m 1/03/2021 1:45 Not measured Not measured 5849.8 ML/d28/02/2021 8:45 Not measured 106.0 μS/cm 26/02/2021 7:45 Not measured Full data
River Gauge Wilcania Darling 0.89 m 1/03/2021 1:45 459 ML/Day 1/03/2021 1:45 Not measured Not measured 24.2°C 1/03/2021 1:45 443.1 μS/cm 1/03/2021 1:45 Not measured Full data
River Gauge Yarrawonga Main Channel Murray 123.55 m 1/03/2021 2:45 Not measured Not measured 999.9 ML/d1/03/2021 2:45 Not measured Not measured Not measured Full data
Weirs Yarrawonga Weir Downstream Murray 1.5 m 1/03/2021 2:30 9102 ML/Day 1/03/2021 2:30 Not measured Not measured 21.8°C 1/03/2021 2:30 58.8 μS/cm 1/03/2021 2:30 Not measured Full data
Weirs Yarrawonga Weir Upstream Murray 124.73 m 1/03/2021 2:45 Not measured Not measured Not measured Not measured Not measured 0.00 mm 27/02/2021 9:00 Full data